createdAt,value
2018-12-23T00:00:01.903Z,14.10
2018-12-23T00:02:30.577Z,12.90
2018-12-23T00:04:59.186Z,11.50
2018-12-23T00:07:27.542Z,10.67
2018-12-23T00:09:56.142Z,10.20
2018-12-23T00:12:24.573Z,8.83
2018-12-23T00:14:52.933Z,9.10
2018-12-23T00:17:21.375Z,8.57
2018-12-23T00:19:49.857Z,6.90
2018-12-23T00:22:18.282Z,7.40
2018-12-23T00:24:46.633Z,6.67
2018-12-23T00:27:14.987Z,8.60
2018-12-23T00:29:43.338Z,7.80
2018-12-23T00:32:11.666Z,7.23
2018-12-23T00:34:40.009Z,6.90
2018-12-23T00:37:08.346Z,5.23
2018-12-23T00:39:36.701Z,6.20
2018-12-23T00:42:05.057Z,5.50
2018-12-23T00:44:33.392Z,4.43
2018-12-23T00:47:01.740Z,4.87
2018-12-23T00:49:30.081Z,3.43
2018-12-23T00:51:58.413Z,3.83
2018-12-23T00:54:26.786Z,3.40
2018-12-23T00:56:55.267Z,2.97
2018-12-23T00:59:23.604Z,3.40
2018-12-23T01:01:51.934Z,2.40
2018-12-23T01:04:20.282Z,2.57
2018-12-23T01:06:48.626Z,2.60
2018-12-23T01:09:17.310Z,3.00
2018-12-23T01:11:45.762Z,2.10
2018-12-23T01:14:14.089Z,2.30
2018-12-23T01:16:42.415Z,2.40
2018-12-23T01:19:10.757Z,1.50
2018-12-23T01:21:39.338Z,1.77
2018-12-23T01:24:08.625Z,1.37
2018-12-23T01:26:36.972Z,1.40
2018-12-23T01:29:05.311Z,1.43
2018-12-23T01:31:35.703Z,1.30
2018-12-23T01:34:05.412Z,1.50
2018-12-23T01:36:35.151Z,1.10
2018-12-23T01:39:05.871Z,1.10
2018-12-23T01:41:36.485Z,1.80
2018-12-23T01:44:06.596Z,1.53
2018-12-23T01:46:34.972Z,1.37
2018-12-23T01:49:03.310Z,1.63
2018-12-23T01:51:31.647Z,1.20
2018-12-23T01:53:59.992Z,1.60
2018-12-23T01:56:28.336Z,0.80
2018-12-23T01:58:56.862Z,1.30
2018-12-23T02:01:25.205Z,0.90
2018-12-23T02:03:53.563Z,1.20
2018-12-23T02:06:21.891Z,1.10
2018-12-23T02:08:50.321Z,1.00
2018-12-23T02:11:18.667Z,0.90
2018-12-23T02:13:47.024Z,1.00
2018-12-23T02:16:15.366Z,0.93
2018-12-23T02:18:43.705Z,1.20
2018-12-23T02:21:13.042Z,1.30
2018-12-23T02:23:41.463Z,1.30
2018-12-23T02:26:09.807Z,1.00
2018-12-23T02:28:38.127Z,0.90
2018-12-23T02:31:06.473Z,0.90
2018-12-23T02:33:34.810Z,1.40
2018-12-23T02:36:03.158Z,1.23
2018-12-23T02:38:31.512Z,0.90
2018-12-23T02:40:59.868Z,1.20
2018-12-23T02:43:28.206Z,1.13
2018-12-23T02:45:56.543Z,1.40
2018-12-23T02:48:24.887Z,1.00
2018-12-23T02:50:53.223Z,1.47
2018-12-23T02:53:21.563Z,1.13
2018-12-23T02:55:49.901Z,1.10
2018-12-23T02:58:18.356Z,1.23
2018-12-23T03:00:46.792Z,1.53
2018-12-23T03:03:15.131Z,1.10
2018-12-23T03:05:43.465Z,2.00
2018-12-23T03:08:11.809Z,1.67
2018-12-23T03:10:40.148Z,2.10
2018-12-23T03:13:08.627Z,2.77
2018-12-23T03:15:36.952Z,2.13
2018-12-23T03:18:05.485Z,2.30
2018-12-23T03:20:33.805Z,2.40
2018-12-23T03:23:02.137Z,2.27
2018-12-23T03:25:30.470Z,2.33
2018-12-23T03:27:58.818Z,2.80
2018-12-23T03:30:27.216Z,3.20
2018-12-23T03:32:55.572Z,2.60
2018-12-23T03:35:23.904Z,2.80
2018-12-23T03:37:52.231Z,2.07
2018-12-23T03:40:20.570Z,2.63
2018-12-23T03:42:48.901Z,2.50
2018-12-23T03:45:17.243Z,2.87
2018-12-23T03:47:45.665Z,3.37
2018-12-23T03:50:14.122Z,3.43
2018-12-23T03:52:42.527Z,3.20
2018-12-23T03:55:10.880Z,2.67
2018-12-23T03:57:39.247Z,2.80
2018-12-23T04:00:08.021Z,4.20
2018-12-23T04:02:36.373Z,3.23
2018-12-23T04:05:04.910Z,5.03
2018-12-23T04:07:33.523Z,7.50
2018-12-23T04:10:01.942Z,4.73
2018-12-23T04:12:30.395Z,7.07
2018-12-23T04:14:58.750Z,6.23
2018-12-23T04:17:27.117Z,8.23
2018-12-23T04:19:55.496Z,5.53
2018-12-23T04:22:23.834Z,7.67
2018-12-23T04:24:52.174Z,5.43
2018-12-23T04:27:20.511Z,5.30
2018-12-23T04:29:48.975Z,6.50
2018-12-23T04:32:17.502Z,8.93
2018-12-23T04:34:45.831Z,6.60
2018-12-23T04:37:14.175Z,8.20
2018-12-23T04:39:42.584Z,6.93
2018-12-23T04:42:10.937Z,7.23
2018-12-23T04:44:39.370Z,7.10
2018-12-23T04:47:07.704Z,6.00
2018-12-23T04:49:36.050Z,6.60
2018-12-23T04:52:04.389Z,6.23
2018-12-23T04:54:32.737Z,7.30
2018-12-23T04:57:01.296Z,7.67
2018-12-23T04:59:29.660Z,5.50
2018-12-23T05:01:57.994Z,4.90
2018-12-23T05:04:26.327Z,5.03
2018-12-23T05:06:54.672Z,3.97
2018-12-23T05:09:23.127Z,6.03
2018-12-23T05:11:51.459Z,5.50
2018-12-23T05:14:19.794Z,4.80
2018-12-23T05:16:48.139Z,4.33
2018-12-23T05:19:16.479Z,2.93
2018-12-23T05:21:44.916Z,3.00
2018-12-23T05:24:13.252Z,3.60
2018-12-23T05:26:41.576Z,4.13
2018-12-23T05:29:09.915Z,2.97
2018-12-23T05:31:38.431Z,2.90
2018-12-23T05:34:06.768Z,3.53
2018-12-23T05:36:35.111Z,4.53
2018-12-23T05:39:05.519Z,3.10
2018-12-23T05:41:33.859Z,3.30
2018-12-23T05:44:02.498Z,3.20
2018-12-23T05:46:30.838Z,3.10
2018-12-23T05:48:59.285Z,2.87
2018-12-23T05:51:27.632Z,2.50
2018-12-23T05:53:55.964Z,2.20
2018-12-23T05:56:24.311Z,3.80
2018-12-23T05:58:52.640Z,3.00
2018-12-23T06:01:20.985Z,2.57
2018-12-23T06:03:49.327Z,2.43
2018-12-23T06:06:17.905Z,2.80
2018-12-23T06:08:46.235Z,2.57
2018-12-23T06:11:14.577Z,2.03
2018-12-23T06:13:42.915Z,1.87
2018-12-23T06:16:11.247Z,3.37
2018-12-23T06:18:39.585Z,1.90
2018-12-23T06:21:07.918Z,3.20
2018-12-23T06:23:36.263Z,2.27
2018-12-23T06:26:04.598Z,2.70
2018-12-23T06:28:33.262Z,2.97
2018-12-23T06:31:01.672Z,2.77
2018-12-23T06:33:30.009Z,4.10
2018-12-23T06:35:58.373Z,2.90
2018-12-23T06:38:26.973Z,2.33
2018-12-23T06:40:55.516Z,2.97
2018-12-23T06:43:23.847Z,3.40
2018-12-23T06:45:52.316Z,2.70
2018-12-23T06:48:20.769Z,3.10
2018-12-23T06:50:49.405Z,3.13
2018-12-23T06:53:17.860Z,2.50
2018-12-23T06:55:46.305Z,2.80
2018-12-23T06:58:14.699Z,2.30
2018-12-23T07:00:43.034Z,3.50
2018-12-23T07:03:11.497Z,2.00
2018-12-23T07:05:39.827Z,1.63
2018-12-23T07:08:08.168Z,2.10
2018-12-23T07:10:36.505Z,1.93
2018-12-23T07:13:05.015Z,1.67
2018-12-23T07:15:33.363Z,2.17
2018-12-23T07:18:01.710Z,2.00
2018-12-23T07:20:30.033Z,1.70
2018-12-23T07:22:58.538Z,1.93
2018-12-23T07:25:26.866Z,1.47
2018-12-23T07:27:55.216Z,1.73
2018-12-23T07:30:23.568Z,1.83
2018-12-23T07:32:51.899Z,1.50
2018-12-23T07:35:20.239Z,3.83
2018-12-23T07:37:48.591Z,3.10
2018-12-23T07:40:16.940Z,1.60
2018-12-23T07:42:45.314Z,1.97
2018-12-23T07:45:13.860Z,3.77
2018-12-23T07:47:42.212Z,2.50
2018-12-23T07:50:10.539Z,1.93
2018-12-23T07:52:38.971Z,2.50
2018-12-23T07:55:07.453Z,2.47
2018-12-23T07:57:36.038Z,1.20
2018-12-23T08:00:05.014Z,2.97
2018-12-23T08:02:33.445Z,2.00
2018-12-23T08:05:01.793Z,3.50
2018-12-23T08:07:36.099Z,3.13
2018-12-23T08:10:00.488Z,2.80
2018-12-23T08:12:28.842Z,3.83
2018-12-23T08:14:57.171Z,4.87
2018-12-23T08:17:25.620Z,5.50
2018-12-23T08:19:53.972Z,4.30
2018-12-23T08:22:23.507Z,4.20
2018-12-23T08:24:52.490Z,4.90
2018-12-23T08:27:20.957Z,5.53
2018-12-23T08:29:49.356Z,5.17
2018-12-23T08:32:17.721Z,4.47
2018-12-23T08:34:46.041Z,4.67
2018-12-23T08:37:14.383Z,4.20
2018-12-23T08:39:42.864Z,3.00
2018-12-23T08:42:11.454Z,3.50
2018-12-23T08:44:39.994Z,3.00
2018-12-23T08:47:08.732Z,3.00
2018-12-23T08:49:37.096Z,3.10
2018-12-23T08:52:05.488Z,2.77
2018-12-23T08:54:34.370Z,3.67
2018-12-23T08:57:02.721Z,3.27
2018-12-23T08:59:31.068Z,5.60
2018-12-23T09:01:59.619Z,4.00
2018-12-23T09:04:27.979Z,4.47
2018-12-23T09:06:56.312Z,3.70
2018-12-23T09:09:24.848Z,6.43
2018-12-23T09:11:53.194Z,6.07
2018-12-23T09:14:21.544Z,6.40
2018-12-23T09:16:49.890Z,6.83
2018-12-23T09:19:18.257Z,7.00
2018-12-23T09:21:46.610Z,5.73
2018-12-23T09:24:15.168Z,6.53
2018-12-23T09:26:43.508Z,5.20
2018-12-23T09:29:11.845Z,6.40
2018-12-23T09:31:40.197Z,6.60
2018-12-23T09:34:08.555Z,5.10
2018-12-23T09:36:37.144Z,5.00
2018-12-23T09:39:06.106Z,6.17
2018-12-23T09:41:34.452Z,5.80
2018-12-23T09:44:02.960Z,5.37
2018-12-23T09:46:31.389Z,5.77
2018-12-23T09:48:59.738Z,4.37
2018-12-23T09:51:28.278Z,3.90
2018-12-23T09:53:56.622Z,4.43
2018-12-23T09:56:24.968Z,5.30
2018-12-23T09:58:53.407Z,4.30
2018-12-23T10:01:21.873Z,5.30
2018-12-23T10:03:50.280Z,4.83
2018-12-23T10:06:18.607Z,4.60
2018-12-23T10:08:46.958Z,5.10
2018-12-23T10:11:15.295Z,4.50
2018-12-23T10:13:43.650Z,4.57
2018-12-23T10:16:12.088Z,5.50
2018-12-23T10:18:40.714Z,4.43
2018-12-23T10:21:10.178Z,6.00
2018-12-23T10:23:39.517Z,5.00
2018-12-23T10:26:07.964Z,5.67
2018-12-23T10:28:36.387Z,4.73
2018-12-23T10:31:04.715Z,4.27
2018-12-23T10:33:33.055Z,3.60
2018-12-23T10:36:01.407Z,3.87
2018-12-23T10:38:29.967Z,4.03
2018-12-23T10:40:58.295Z,3.30
2018-12-23T10:43:26.630Z,3.90
2018-12-23T10:45:54.974Z,3.83
2018-12-23T10:48:23.297Z,3.07
2018-12-23T10:50:51.700Z,3.73
2018-12-23T10:53:20.047Z,3.00
2018-12-23T10:55:48.391Z,3.07
2018-12-23T10:58:16.743Z,2.87
2018-12-23T11:00:45.092Z,2.23
2018-12-23T11:03:13.449Z,2.73
2018-12-23T11:05:41.829Z,2.93
2018-12-23T11:08:10.190Z,2.43
2018-12-23T11:10:38.530Z,1.80
2018-12-23T11:13:06.938Z,2.50
2018-12-23T11:15:35.280Z,2.70
2018-12-23T11:18:03.727Z,2.60
2018-12-23T11:20:32.067Z,3.07
2018-12-23T11:23:00.656Z,2.47
2018-12-23T11:25:28.997Z,1.80
2018-12-23T11:27:57.317Z,2.40
2018-12-23T11:30:25.785Z,2.47
2018-12-23T11:32:54.107Z,2.70
2018-12-23T11:35:22.457Z,2.37
2018-12-23T11:37:50.927Z,2.33
2018-12-23T11:40:19.408Z,2.67
2018-12-23T11:42:47.745Z,2.17
2018-12-23T11:45:16.079Z,2.27
2018-12-23T11:47:44.422Z,1.83
2018-12-23T11:50:12.771Z,1.60
2018-12-23T11:52:41.116Z,3.00
2018-12-23T11:55:09.678Z,2.13
2018-12-23T11:57:38.161Z,1.90
2018-12-23T12:00:07.050Z,1.67
2018-12-23T12:02:35.529Z,1.60
2018-12-23T12:05:04.385Z,2.07
2018-12-23T12:07:32.750Z,2.20
2018-12-23T12:10:01.081Z,1.60
2018-12-23T12:12:29.429Z,1.23
2018-12-23T12:14:57.931Z,1.93
2018-12-23T12:17:26.266Z,1.97
2018-12-23T12:19:54.670Z,1.57
2018-12-23T12:22:23.109Z,1.57
2018-12-23T12:24:51.593Z,1.57
2018-12-23T12:27:20.130Z,1.97
2018-12-23T12:29:48.515Z,1.40
2018-12-23T12:32:16.897Z,1.87
2018-12-23T12:34:45.307Z,1.50
2018-12-23T12:37:13.657Z,1.50
2018-12-23T12:39:42.228Z,3.63
2018-12-23T12:42:10.580Z,1.93
2018-12-23T12:44:39.024Z,1.80
2018-12-23T12:47:07.372Z,1.37
2018-12-23T12:49:35.733Z,1.83
2018-12-23T12:52:04.317Z,1.40
2018-12-23T12:54:32.679Z,1.57
2018-12-23T12:57:01.052Z,2.00
2018-12-23T12:59:29.412Z,1.83
2018-12-23T13:01:57.947Z,1.67
2018-12-23T13:04:26.292Z,2.00
2018-12-23T13:06:54.645Z,1.57
2018-12-23T13:09:22.989Z,2.77
2018-12-23T13:11:51.318Z,1.70
2018-12-23T13:14:19.878Z,1.30
2018-12-23T13:16:48.425Z,1.67
2018-12-23T13:19:16.904Z,1.70
2018-12-23T13:21:45.243Z,1.70
2018-12-23T13:24:13.624Z,1.90
2018-12-23T13:26:42.443Z,1.87
2018-12-23T13:29:11.154Z,2.43
2018-12-23T13:31:39.718Z,2.17
2018-12-23T13:34:08.258Z,1.63
2018-12-23T13:36:36.773Z,2.20
2018-12-23T13:39:09.141Z,1.80
2018-12-23T13:41:43.963Z,2.07
2018-12-23T13:44:23.252Z,1.90
2018-12-23T13:50:48.227Z,1.90
2018-12-23T13:53:33.431Z,1.90
2018-12-23T13:56:21.445Z,1.63
2018-12-23T13:58:54.312Z,1.40
2018-12-23T14:01:30.383Z,2.03
2018-12-23T14:04:30.321Z,1.43
2018-12-23T14:07:19.667Z,1.90
2018-12-23T14:10:01.677Z,1.90
2018-12-23T14:12:31.630Z,1.47
2018-12-23T14:15:01.580Z,3.00
2018-12-23T14:17:31.444Z,1.77
2018-12-23T14:20:01.396Z,1.13
2018-12-23T14:22:31.378Z,1.70
2018-12-23T14:25:01.473Z,1.77
2018-12-23T14:27:31.341Z,1.63
2018-12-23T14:30:01.213Z,1.83
2018-12-23T14:32:31.059Z,2.90
2018-12-23T14:35:01.016Z,1.80
2018-12-23T14:37:30.943Z,1.40
2018-12-23T14:40:02.775Z,1.20
2018-12-23T14:42:32.699Z,2.63
2018-12-23T14:45:02.578Z,1.50
2018-12-23T14:47:32.511Z,1.73
2018-12-23T14:50:02.667Z,1.83
2018-12-23T15:08:37.568Z,1.70
2018-12-23T15:11:08.823Z,2.20
2018-12-23T15:13:39.763Z,2.07
2018-12-23T15:16:10.720Z,2.07
2018-12-23T15:18:41.642Z,2.30
2018-12-23T15:21:12.903Z,1.70
2018-12-23T15:23:44.170Z,1.80
2018-12-23T15:26:15.067Z,1.97
2018-12-23T15:28:45.955Z,2.20
2018-12-23T15:31:16.944Z,2.90
2018-12-23T15:33:47.881Z,1.67
2018-12-23T15:36:19.538Z,1.37
2018-12-23T15:38:50.528Z,1.60
2018-12-23T15:41:21.626Z,1.83
2018-12-23T15:43:52.741Z,1.43
2018-12-23T15:46:23.759Z,1.33
2018-12-23T15:48:54.694Z,1.30
2018-12-23T15:51:25.673Z,1.37
2018-12-23T15:53:56.729Z,2.03
2018-12-23T15:56:28.088Z,2.00
2018-12-23T15:58:59.080Z,2.03
2018-12-23T16:01:30.098Z,2.00
2018-12-23T16:04:01.533Z,1.87
2018-12-23T16:06:32.862Z,1.97
2018-12-23T16:09:04.926Z,2.13
2018-12-23T16:11:35.842Z,2.30
2018-12-23T16:14:08.214Z,2.30
2018-12-23T16:16:39.461Z,2.60
2018-12-23T16:19:11.246Z,1.90
2018-12-23T16:21:42.591Z,2.27
2018-12-23T16:24:13.933Z,2.13
2018-12-23T16:26:46.689Z,2.07
2018-12-23T16:29:17.855Z,2.77
2018-12-23T16:31:48.942Z,2.50
2018-12-23T16:34:20.334Z,2.63
2018-12-23T16:36:51.424Z,2.07
2018-12-23T16:39:22.400Z,2.40
2018-12-23T16:41:53.885Z,2.20
2018-12-23T16:44:24.911Z,2.10
2018-12-23T16:46:56.272Z,2.07
2018-12-23T16:49:27.223Z,2.20
2018-12-23T16:51:58.230Z,2.70
2018-12-23T16:54:29.173Z,3.00
2018-12-23T16:57:00.129Z,3.40
2018-12-23T16:59:30.890Z,3.50
2018-12-23T17:02:01.596Z,3.03
2018-12-23T17:04:32.646Z,3.00
2018-12-23T17:07:03.745Z,3.23
2018-12-23T17:09:34.834Z,3.27
2018-12-23T17:12:05.702Z,3.73
2018-12-23T17:14:36.639Z,3.40
2018-12-23T17:17:07.621Z,4.50
2018-12-23T17:19:38.547Z,4.50
2018-12-23T17:22:09.816Z,4.00
2018-12-23T17:24:41.162Z,5.27
2018-12-23T17:27:12.598Z,5.30
2018-12-23T17:29:43.493Z,5.50
2018-12-23T17:32:14.493Z,5.67
2018-12-23T17:34:45.898Z,4.80
2018-12-23T17:37:17.081Z,5.10
2018-12-23T17:39:47.968Z,5.07
2018-12-23T17:42:18.959Z,5.60
2018-12-23T17:44:49.845Z,5.00
2018-12-23T17:47:20.944Z,4.47
2018-12-23T17:49:51.916Z,4.83
2018-12-23T17:52:23.542Z,6.00
2018-12-23T17:54:54.644Z,4.97
2018-12-23T17:57:25.674Z,5.43
2018-12-23T17:59:56.487Z,4.60
2018-12-23T18:02:28.092Z,4.93
2018-12-23T18:04:58.980Z,5.73
2018-12-23T18:07:31.521Z,6.00
2018-12-23T18:10:03.919Z,6.67
2018-12-23T18:12:37.424Z,7.03
2018-12-23T18:15:08.653Z,7.23
2018-12-23T18:17:39.730Z,6.63
2018-12-23T18:20:10.808Z,6.60
2018-12-23T18:22:41.899Z,7.70
2018-12-23T18:25:12.998Z,7.80
2018-12-23T18:27:44.150Z,6.60
2018-12-23T18:30:15.308Z,8.73
2018-12-23T18:32:46.742Z,7.73
2018-12-23T18:35:17.750Z,7.80
2018-12-23T18:37:49.336Z,9.07
2018-12-23T18:40:20.460Z,7.53
2018-12-23T18:42:51.615Z,10.00
2018-12-23T18:45:22.964Z,9.00
2018-12-23T18:47:54.325Z,10.70
2018-12-23T18:50:25.369Z,10.33
2018-12-23T18:52:56.270Z,9.43
2018-12-23T18:55:28.910Z,9.87
2018-12-23T18:58:00.938Z,10.57
2018-12-23T19:00:31.900Z,9.43
2018-12-23T19:03:02.859Z,11.23
2018-12-23T19:05:33.842Z,13.57
2018-12-23T19:08:04.792Z,10.93
2018-12-23T19:10:42.033Z,11.40
2018-12-23T19:13:20.377Z,12.27
2018-12-23T19:16:15.414Z,12.33
2018-12-23T19:19:11.904Z,13.10
2018-12-23T19:22:08.188Z,11.40
2018-12-23T19:24:56.901Z,12.17
2018-12-23T19:27:30.948Z,9.90
2018-12-23T19:30:29.322Z,10.43
2018-12-23T19:33:02.988Z,10.37
2018-12-23T19:35:42.575Z,11.00
2018-12-23T19:38:33.237Z,9.90
2018-12-23T19:41:23.869Z,8.93
2018-12-23T19:44:00.542Z,9.83
2018-12-23T19:46:34.109Z,9.13
2018-12-23T19:49:24.530Z,9.90
2018-12-23T19:52:24.353Z,9.63
2018-12-23T19:55:03.897Z,8.93
2018-12-23T19:57:50.079Z,9.10
2018-12-23T20:00:26.534Z,10.17
2018-12-23T20:03:24.139Z,10.07
2018-12-23T20:06:04.300Z,12.30
2018-12-23T20:08:37.908Z,11.00
2018-12-23T20:11:36.562Z,10.90
2018-12-23T20:14:28.253Z,11.63
2018-12-23T20:17:20.424Z,11.80
2018-12-23T20:20:25.251Z,11.40
2018-12-23T20:23:13.817Z,10.47
2018-12-23T20:26:02.471Z,10.67
2018-12-23T20:28:48.872Z,11.30
2018-12-23T20:31:34.638Z,11.40
2018-12-23T20:34:26.897Z,9.50
2018-12-23T20:37:20.911Z,10.90
2018-12-23T20:39:55.306Z,10.87
2018-12-23T20:42:41.483Z,10.80
2018-12-23T20:45:30.053Z,9.07
2018-12-23T20:48:09.795Z,9.10
2018-12-23T20:50:46.796Z,10.50
2018-12-23T20:53:45.154Z,10.00
2018-12-23T20:56:18.930Z,10.00
2018-12-23T20:59:15.786Z,9.70
2018-12-23T21:01:58.450Z,9.30
2018-12-23T21:04:48.623Z,8.87
2018-12-23T21:07:44.106Z,9.20
2018-12-23T21:10:34.914Z,11.20
2018-12-23T21:13:25.316Z,10.33
2018-12-23T21:16:08.126Z,9.27
2018-12-23T21:18:54.421Z,9.70
2018-12-23T21:21:28.196Z,9.07
2018-12-23T21:24:17.599Z,9.67
2018-12-23T21:27:09.883Z,9.03
2018-12-23T21:29:43.913Z,10.50
2018-12-23T21:32:45.151Z,9.63
2018-12-23T21:35:35.686Z,11.30
2018-12-23T21:38:24.432Z,10.43
2018-12-23T21:41:09.896Z,10.20
2018-12-23T21:44:00.522Z,9.53
2018-12-23T21:46:54.303Z,9.93
2018-12-23T21:49:30.654Z,9.63
2018-12-23T21:52:27.302Z,11.93
2018-12-23T21:55:20.742Z,10.33
2018-12-23T21:58:11.747Z,11.60
2018-12-23T22:01:03.533Z,10.70
2018-12-23T22:04:05.983Z,12.23
2018-12-23T22:06:58.234Z,11.07
2018-12-23T22:09:38.163Z,12.67
2018-12-23T22:12:30.043Z,10.93
2018-12-23T22:15:01.054Z,12.73
2018-12-23T22:17:32.141Z,12.80
2018-12-23T22:20:03.522Z,14.30
2018-12-23T22:22:34.852Z,16.13
2018-12-23T22:25:06.135Z,15.87
2018-12-23T22:27:38.107Z,19.03
2018-12-23T22:30:09.083Z,17.07
2018-12-23T22:32:41.971Z,18.57
2018-12-23T22:35:12.980Z,19.93
2018-12-23T22:37:44.306Z,19.33
2018-12-23T22:40:15.234Z,20.53
2018-12-23T22:42:46.426Z,20.13
2018-12-23T22:45:17.596Z,22.80
2018-12-23T22:47:49.580Z,21.50
2018-12-23T22:50:20.637Z,19.70
2018-12-23T22:52:51.711Z,19.00
2018-12-23T22:55:22.674Z,17.20
2018-12-23T22:57:53.951Z,20.10
2018-12-23T23:00:26.748Z,17.20
2018-12-23T23:02:57.700Z,16.70
2018-12-23T23:05:28.811Z,14.70
2018-12-23T23:08:01.887Z,16.70
2018-12-23T23:10:33.042Z,14.63
2018-12-23T23:13:03.959Z,13.67
2018-12-23T23:15:34.857Z,16.40
2018-12-23T23:18:05.842Z,14.10
2018-12-23T23:20:36.786Z,14.43
2018-12-23T23:23:07.583Z,13.73
2018-12-23T23:25:38.669Z,13.60
2018-12-23T23:28:09.441Z,12.40
2018-12-23T23:30:40.764Z,11.77
2018-12-23T23:33:12.206Z,11.90
2018-12-23T23:35:43.633Z,13.10
2018-12-23T23:38:14.517Z,11.10
2018-12-23T23:40:45.641Z,10.10
2018-12-23T23:43:17.069Z,10.10
2018-12-23T23:45:48.088Z,9.83
2018-12-23T23:48:20.501Z,10.50
2018-12-23T23:50:52.542Z,10.00
2018-12-23T23:53:23.810Z,10.20
2018-12-23T23:55:55.161Z,9.23
2018-12-23T23:58:26.304Z,10.23
